Time;durP1;ratioP1;P1;durP2;ratioP2;P2;SDS_P1;SDS_P2;PMS_P1;PMS_P2;Temp;Humidity;BMP_temperature;BMP_pressure;BME280_temperature;BME280_humidity;BME280_pressure;Samples;Min_cycle;Max_cycle;Signal;HPM_P1;HPM_P2
2023/10/29 00:00:49;;;;;;;0.87;0.87;;;;;;;15.86;88.99;99162.59;5114920;28;20198;-70
2023/10/29 00:03:16;;;;;;;1.20;1.20;;;;;;;15.85;88.94;99168.66;5114779;28;20559;-69
2023/10/29 00:05:43;;;;;;;1.00;1.00;;;;;;;15.80;88.86;99175.84;5114724;28;20211;-70
2023/10/29 00:08:10;;;;;;;0.67;0.67;;;;;;;15.68;89.20;99172.16;5114893;28;20198;-69
2023/10/29 00:10:36;;;;;;;2.83;0.90;;;;;;;15.54;89.97;99175.50;5114688;28;20269;-70
2023/10/29 00:13:04;;;;;;;1.20;1.20;;;;;;;15.23;90.28;99180.59;5114645;28;20195;-70
2023/10/29 00:15:32;;;;;;;1.13;1.13;;;;;;;15.16;90.90;99184.41;5114457;28;20194;-70
2023/10/29 00:17:59;;;;;;;0.70;0.70;;;;;;;15.18;91.03;99187.75;5114613;28;20645;-70
2023/10/29 00:20:26;;;;;;;0.93;0.90;;;;;;;15.23;91.27;99198.69;5114304;27;20198;-70
2023/10/29 00:22:53;;;;;;;1.30;1.30;;;;;;;15.23;91.85;99198.69;5114404;28;20256;-70
2023/10/29 00:25:20;;;;;;;2.40;1.10;;;;;;;15.22;91.71;99200.41;5114059;28;20217;-70
2023/10/29 00:27:47;;;;;;;1.70;1.60;;;;;;;15.25;91.82;99199.41;5114510;27;20668;-70
2023/10/29 00:30:14;;;;;;;0.70;0.70;;;;;;;15.24;91.86;99202.94;5114490;28;20198;-70
2023/10/29 00:32:42;;;;;;;1.03;1.03;;;;;;;15.33;91.46;99211.94;5110217;28;20202;-70
2023/10/29 00:35:10;;;;;;;1.20;1.20;;;;;;;15.33;91.05;99210.19;5114458;28;20190;-70
2023/10/29 00:37:36;;;;;;;1.00;1.00;;;;;;;15.33;91.02;99214.53;5114032;28;20683;-70
2023/10/29 00:40:04;;;;;;;1.17;1.17;;;;;;;15.34;90.51;99222.22;5114071;28;20236;-70
2023/10/29 00:42:30;;;;;;;1.93;0.73;;;;;;;15.35;90.52;99220.47;5114099;28;20199;-70
2023/10/29 00:44:57;;;;;;;2.13;1.00;;;;;;;15.34;90.59;99219.63;5113752;28;20210;-70
2023/10/29 00:47:24;;;;;;;1.33;1.33;;;;;;;15.32;90.78;99216.25;5114064;28;20198;-70
2023/10/29 00:49:53;;;;;;;2.33;1.27;;;;;;;15.32;90.89;99215.44;5113950;28;20237;-69
2023/10/29 00:52:20;;;;;;;1.37;1.37;;;;;;;15.30;91.03;99218.09;5113663;28;20198;-70
2023/10/29 00:54:47;;;;;;;1.20;1.20;;;;;;;15.25;91.05;99210.59;5113796;28;20566;-69
2023/10/29 00:57:16;;;;;;;1.53;1.43;;;;;;;15.24;90.91;99223.59;5113801;28;20206;-70
2023/10/29 00:59:43;;;;;;;1.50;1.50;;;;;;;15.21;91.26;99219.44;5113683;28;20206;-69
2023/10/29 01:02:10;;;;;;;1.07;1.07;;;;;;;15.20;91.50;99235.81;5113541;28;20196;-70
2023/10/29 01:04:37;;;;;;;1.00;1.00;;;;;;;15.21;91.16;99234.09;5113719;28;20298;-70
2023/10/29 01:07:05;;;;;;;2.07;1.53;;;;;;;15.21;91.23;99234.09;5113504;28;20248;-70
2023/10/29 01:09:33;;;;;;;4.60;1.70;;;;;;;15.20;91.29;99243.56;5113261;27;20227;-70
2023/10/29 01:12:00;;;;;;;1.10;1.00;;;;;;;15.11;91.90;99243.22;5113319;28;20250;-70
2023/10/29 01:14:27;;;;;;;0.90;0.90;;;;;;;15.07;91.78;99246.84;5113328;28;20191;-70
2023/10/29 01:16:53;;;;;;;0.80;0.80;;;;;;;14.99;92.27;99251.59;5113293;28;20191;-69
2023/10/29 01:19:20;;;;;;;1.03;1.03;;;;;;;14.96;92.13;99256.91;5113095;28;20193;-70
2023/10/29 01:21:47;;;;;;;1.80;1.00;;;;;;;14.94;92.10;99241.47;5113194;28;20250;-70
2023/10/29 01:24:15;;;;;;;1.00;1.00;;;;;;;14.94;92.61;99248.38;5113207;28;20313;-70
2023/10/29 01:26:42;;;;;;;3.20;0.97;;;;;;;14.90;93.01;99239.94;5113162;28;20686;-70
2023/10/29 01:29:08;;;;;;;0.60;0.60;;;;;;;14.90;93.11;99241.69;5112854;28;20198;-70
2023/10/29 01:31:35;;;;;;;0.93;0.93;;;;;;;14.90;93.11;99239.13;5113033;28;20195;-70
2023/10/29 01:34:02;;;;;;;1.10;1.10;;;;;;;14.92;93.35;99238.16;5113026;28;20623;-69
2023/10/29 01:36:28;;;;;;;1.50;1.10;;;;;;;14.96;93.15;99244.00;5109042;28;20198;-70
2023/10/29 01:38:55;;;;;;;1.53;1.53;;;;;;;14.99;92.95;99246.44;5112788;28;20258;-69
2023/10/29 01:41:24;;;;;;;1.50;1.40;;;;;;;14.88;92.66;99223.72;5112803;28;20198;-70
2023/10/29 01:43:51;;;;;;;1.00;1.00;;;;;;;15.01;92.59;99252.31;5113104;28;20197;-70
2023/10/29 01:46:17;;;;;;;1.10;1.10;;;;;;;15.01;92.46;99257.50;5112694;28;20638;-70
2023/10/29 01:48:44;;;;;;;0.60;0.60;;;;;;;14.97;92.17;99258.56;5112855;28;20264;-70
2023/10/29 01:51:11;;;;;;;1.30;1.30;;;;;;;14.98;91.40;99255.91;5112463;28;20195;-70
2023/10/29 01:53:37;;;;;;;0.73;0.73;;;;;;;14.97;90.93;99259.41;5112882;28;20266;-70
2023/10/29 01:56:08;;;;;;;0.80;0.80;;;;;;;14.98;90.63;99255.06;5112422;28;20251;-69
2023/10/29 01:58:36;;;;;;;0.97;0.97;;;;;;;14.96;90.86;99256.91;5112754;28;20198;-70
2023/10/29 02:01:09;;;;;;;0.80;0.80;;;;;;;14.92;90.83;99257.97;5112443;28;20333;-69
2023/10/29 02:03:36;;;;;;;1.43;1.43;;;;;;;14.87;90.98;99257.34;5112423;28;20250;-70
2023/10/29 02:06:03;;;;;;;0.87;0.87;;;;;;;14.85;91.43;99251.44;5111536;28;20644;-69
2023/10/29 02:08:32;;;;;;;1.00;1.00;;;;;;;14.84;91.71;99249.75;5112193;27;20201;-70
2023/10/29 02:10:59;;;;;;;0.87;0.87;;;;;;;14.81;91.64;99255.91;5112145;28;20299;-70
2023/10/29 02:13:25;;;;;;;0.90;0.90;;;;;;;14.78;91.96;99255.22;5112006;28;20211;-70
2023/10/29 02:15:54;;;;;;;7.30;0.93;;;;;;;14.79;92.43;99254.31;5112359;28;20203;-70
2023/10/29 02:18:21;;;;;;;0.80;0.80;;;;;;;14.81;92.92;99257.66;5111916;28;20262;-69
2023/10/29 02:20:47;;;;;;;1.33;1.07;;;;;;;14.82;93.43;99251.59;5112151;28;20194;-70
2023/10/29 02:23:15;;;;;;;1.07;1.07;;;;;;;14.82;93.93;99264.50;5111896;28;20205;-69
2023/10/29 02:25:42;;;;;;;1.10;1.10;;;;;;;14.78;94.49;99271.53;5112044;28;20214;-69
2023/10/29 02:28:09;;;;;;;1.00;1.00;;;;;;;14.83;94.52;99268.75;5112011;28;20662;-69
2023/10/29 02:30:36;;;;;;;0.87;0.87;;;;;;;14.86;94.24;99274.59;5112150;28;20686;-70
2023/10/29 02:33:03;;;;;;;1.17;1.17;;;;;;;14.88;94.25;99283.09;5111948;28;20228;-70
2023/10/29 02:35:30;;;;;;;1.03;0.80;;;;;;;14.91;94.17;99292.41;5111656;28;20201;-69
2023/10/29 02:37:57;;;;;;;0.63;0.63;;;;;;;14.93;93.71;99290.59;5111796;28;20202;-69
2023/10/29 02:40:25;;;;;;;0.70;0.70;;;;;;;14.97;93.76;99302.44;5111428;28;20257;-69
2023/10/29 02:42:51;;;;;;;0.73;0.73;;;;;;;14.96;93.40;99296.44;5112063;28;20669;-70
2023/10/29 02:45:18;;;;;;;0.70;0.70;;;;;;;14.90;93.09;99296.75;5109135;28;20215;-69
2023/10/29 02:47:45;;;;;;;0.50;0.50;;;;;;;14.85;92.74;99308.22;5111820;28;20253;-69
2023/10/29 02:50:11;;;;;;;0.93;0.93;;;;;;;14.79;92.62;99300.78;5111619;28;20201;-70
2023/10/29 02:52:39;;;;;;;0.77;0.77;;;;;;;14.74;92.73;99306.13;5111369;28;20255;-70
2023/10/29 02:55:06;;;;;;;4.43;0.70;;;;;;;14.67;92.92;99315.91;5111788;28;20190;-70
2023/10/29 02:57:35;;;;;;;0.63;0.63;;;;;;;14.60;93.30;99319.69;5111595;28;20202;-69
2023/10/29 03:00:01;;;;;;;1.00;1.00;;;;;;;14.60;93.92;99317.13;5111532;28;20193;-69
2023/10/29 03:02:28;;;;;;;1.63;1.23;;;;;;;14.57;93.80;99319.84;5111293;28;20260;-69
2023/10/29 03:04:55;;;;;;;3.00;1.13;;;;;;;14.54;94.09;99319.19;5111782;28;20198;-69
2023/10/29 03:07:21;;;;;;;0.90;0.90;;;;;;;14.49;94.58;99314.22;5111519;28;20686;-69
2023/10/29 03:09:48;;;;;;;0.80;0.80;;;;;;;14.49;94.89;99316.81;5111505;28;20229;-70
2023/10/29 03:12:15;;;;;;;0.60;0.60;;;;;;;14.50;94.74;99313.34;5111460;28;20220;-70
2023/10/29 03:14:43;;;;;;;1.00;1.00;;;;;;;14.51;94.45;99320.13;5111189;28;20255;-69
2023/10/29 03:17:09;;;;;;;2.07;1.13;;;;;;;14.50;93.88;99320.22;5114951;28;20263;-70
2023/10/29 03:19:36;;;;;;;0.90;0.90;;;;;;;14.46;93.12;99316.97;5115314;28;20198;-70
2023/10/29 03:22:04;;;;;;;1.10;1.10;;;;;;;14.40;93.06;99319.81;5115599;28;20251;-70
2023/10/29 03:24:31;;;;;;;3.07;0.83;;;;;;;14.33;92.58;99317.56;5115386;28;20280;-70
2023/10/29 03:26:57;;;;;;;0.57;0.57;;;;;;;14.28;92.53;99322.91;5115419;28;20267;-69
2023/10/29 03:29:24;;;;;;;0.70;0.70;;;;;;;14.15;93.26;99306.38;5115521;28;20734;-70
2023/10/29 03:31:52;;;;;;;1.03;1.03;;;;;;;14.26;92.60;99329.91;5115341;28;20248;-69
2023/10/29 03:34:19;;;;;;;0.80;0.80;;;;;;;14.23;92.78;99330.06;5115373;28;20669;-70
2023/10/29 03:36:46;;;;;;;0.93;0.93;;;;;;;14.20;92.81;99336.19;5115156;28;20205;-69
2023/10/29 03:39:12;;;;;;;1.03;1.03;;;;;;;14.14;92.64;99330.47;5115206;28;20198;-70
2023/10/29 03:41:39;;;;;;;0.77;0.77;;;;;;;14.04;93.09;99344.69;5115121;28;20199;-69
2023/10/29 03:44:08;;;;;;;0.77;0.77;;;;;;;13.94;93.65;99349.41;5115240;28;20196;-69
2023/10/29 03:46:34;;;;;;;0.73;0.73;;;;;;;13.92;94.15;99355.53;5114893;28;20230;-69
2023/10/29 03:49:02;;;;;;;1.90;0.80;;;;;;;13.86;94.55;99358.41;5115225;28;20635;-70
2023/10/29 03:51:29;;;;;;;1.20;1.20;;;;;;;13.73;95.00;99359.84;5114959;28;20205;-70
2023/10/29 03:53:56;;;;;;;0.90;0.90;;;;;;;13.73;95.50;99359.84;5114912;28;20627;-70
2023/10/29 03:56:22;;;;;;;2.77;0.90;;;;;;;13.75;95.50;99368.31;5114980;27;20244;-69
2023/10/29 03:58:49;;;;;;;0.90;0.90;;;;;;;13.60;95.74;99350.03;5114701;28;20226;-69
2023/10/29 04:01:16;;;;;;;0.93;0.93;;;;;;;13.60;96.17;99350.03;5114784;28;20200;-69
2023/10/29 04:03:44;;;;;;;0.70;0.70;;;;;;;13.70;96.12;99370.28;5114929;27;20195;-69
2023/10/29 04:06:12;;;;;;;1.00;1.00;;;;;;;13.68;96.22;99363.44;5114891;28;20685;-69
2023/10/29 04:08:39;;;;;;;1.37;1.37;;;;;;;13.64;96.53;99361.91;5114551;28;20202;-69
2023/10/29 04:11:06;;;;;;;3.30;0.93;;;;;;;13.59;96.09;99361.28;5114587;28;20280;-69
2023/10/29 04:13:33;;;;;;;0.70;0.70;;;;;;;13.54;96.79;99373.50;5114479;28;20598;-70
2023/10/29 04:15:59;;;;;;;2.83;0.87;;;;;;;13.44;96.76;99369.63;5114598;28;20187;-69
2023/10/29 04:18:31;;;;;;;0.80;0.80;;;;;;;13.48;96.01;99370.34;5114680;28;20673;-69
2023/10/29 04:20:57;;;;;;;0.80;0.80;;;;;;;13.51;95.58;99376.19;5114341;28;20203;-69
2023/10/29 04:23:26;;;;;;;0.77;0.77;;;;;;;13.52;95.29;99377.88;5114447;28;20199;-69
2023/10/29 04:25:52;;;;;;;0.97;0.97;;;;;;;13.50;95.38;99374.53;5114161;28;20212;-69
2023/10/29 04:28:19;;;;;;;0.63;0.63;;;;;;;13.51;94.94;99380.50;5113645;28;20273;-70
2023/10/29 04:30:46;;;;;;;1.00;1.00;;;;;;;13.50;94.73;99381.44;5114331;28;20695;-69
2023/10/29 04:33:13;;;;;;;1.10;1.10;;;;;;;13.52;94.33;99383.03;5114320;28;20271;-69
2023/10/29 04:35:39;;;;;;;1.23;1.20;;;;;;;13.53;93.69;99384.72;5114184;28;20203;-69
2023/10/29 04:38:06;;;;;;;0.93;0.93;;;;;;;13.52;93.51;99387.34;5114024;28;20658;-69
2023/10/29 04:40:34;;;;;;;1.17;1.17;;;;;;;13.53;93.34;99389.88;5114086;28;20674;-69
2023/10/29 04:43:01;;;;;;;5.70;1.40;;;;;;;13.50;93.23;99390.00;5114133;28;20199;-69
2023/10/29 04:45:27;;;;;;;0.70;0.70;;;;;;;13.47;93.14;99395.25;5114041;28;20743;-69
2023/10/29 04:47:54;;;;;;;0.70;0.70;;;;;;;13.40;93.37;99399.00;5114037;28;20627;-69
2023/10/29 04:50:21;;;;;;;0.90;0.90;;;;;;;13.36;93.50;99400.03;5113841;28;20195;-69
2023/10/29 04:52:48;;;;;;;0.93;0.93;;;;;;;13.31;94.03;99399.34;5113906;28;20335;-70
2023/10/29 04:55:14;;;;;;;0.83;0.83;;;;;;;13.29;94.12;99403.75;5112431;28;20261;-69
2023/10/29 04:57:42;;;;;;;0.70;0.70;;;;;;;13.31;94.20;99409.66;5113656;28;20259;-69
2023/10/29 05:00:10;;;;;;;0.90;0.90;;;;;;;13.26;94.10;99403.03;5113507;28;20202;-69
2023/10/29 05:02:37;;;;;;;0.97;0.97;;;;;;;13.15;94.45;99400.88;5113576;28;20200;-70
2023/10/29 05:05:06;;;;;;;1.37;0.80;;;;;;;13.10;94.15;99395.09;5113079;28;20661;-69
2023/10/29 05:07:33;;;;;;;0.70;0.70;;;;;;;13.04;94.58;99405.59;5113271;28;20250;-70
2023/10/29 05:10:00;;;;;;;0.80;0.80;;;;;;;12.98;95.54;99413.59;5113197;28;20249;-69
2023/10/29 05:12:27;;;;;;;0.70;0.70;;;;;;;12.94;95.38;99414.59;5113688;28;20642;-69
2023/10/29 05:14:55;;;;;;;0.60;0.60;;;;;;;12.89;95.22;99421.66;5113500;28;20203;-69
2023/10/29 05:17:22;;;;;;;0.50;0.50;;;;;;;12.84;95.31;99421.00;5113431;28;20248;-69
2023/10/29 05:19:48;;;;;;;0.50;0.50;;;;;;;12.86;95.38;99426.94;5113433;28;20260;-70
2023/10/29 05:22:15;;;;;;;0.70;0.70;;;;;;;12.88;95.12;99433.69;5113092;28;20191;-69
2023/10/29 05:24:42;;;;;;;0.60;0.60;;;;;;;12.91;95.29;99437.88;5113295;28;20673;-69
2023/10/29 05:27:09;;;;;;;0.90;0.90;;;;;;;12.77;96.29;99434.97;5112980;28;20271;-69
2023/10/29 05:29:36;;;;;;;0.70;0.70;;;;;;;12.50;98.40;99450.56;5113332;28;20234;-69
2023/10/29 05:32:04;;;;;;;0.60;0.60;;;;;;;12.43;100.00;99448.28;5113098;28;20203;-69
2023/10/29 05:34:31;;;;;;;1.00;1.00;;;;;;;12.49;100.00;99446.31;5113071;28;20207;-69
2023/10/29 05:36:58;;;;;;;0.60;0.60;;;;;;;12.58;100.00;99443.41;5112519;28;20199;-69
2023/10/29 05:39:24;;;;;;;1.10;1.10;;;;;;;12.71;100.00;99448.06;5111928;28;20194;-69
2023/10/29 05:41:51;;;;;;;0.80;0.80;;;;;;;12.83;100.00;99452.75;5112898;28;20202;-69
2023/10/29 05:44:18;;;;;;;1.37;1.37;;;;;;;12.88;100.00;99458.56;5112869;28;20635;-69
2023/10/29 05:46:45;;;;;;;2.40;1.10;;;;;;;12.93;100.00;99464.38;5112858;27;20215;-69
2023/10/29 05:49:13;;;;;;;1.07;1.07;;;;;;;13.01;100.00;99468.34;5112686;28;20199;-69
2023/10/29 05:51:39;;;;;;;1.17;1.10;;;;;;;13.07;100.00;99472.41;5112752;28;20199;-69
2023/10/29 05:54:06;;;;;;;1.23;1.23;;;;;;;13.14;100.00;99479.03;5112825;28;20659;-68
2023/10/29 05:56:33;;;;;;;1.20;1.20;;;;;;;13.09;100.00;99483.50;5112762;28;20198;-69
2023/10/29 05:59:00;;;;;;;1.47;1.37;;;;;;;13.09;100.00;99470.63;5112774;28;20777;-69
2023/10/29 06:01:26;;;;;;;1.00;1.00;;;;;;;13.11;100.00;99479.16;5112436;27;20336;-69
2023/10/29 06:03:53;;;;;;;0.93;0.93;;;;;;;13.13;100.00;99475.59;5112796;28;20192;-70
2023/10/29 06:06:21;;;;;;;1.00;1.00;;;;;;;13.22;100.00;99486.41;5112176;28;20795;-69
2023/10/29 06:08:48;;;;;;;1.10;1.10;;;;;;;13.30;100.00;99480.09;5112345;28;20190;-69
2023/10/29 06:11:15;;;;;;;1.70;1.00;;;;;;;13.37;100.00;99486.69;5112370;28;20194;-69
2023/10/29 06:13:43;;;;;;;1.07;1.03;;;;;;;13.46;100.00;99483.72;5112395;28;20739;-70
2023/10/29 06:16:11;;;;;;;1.07;1.07;;;;;;;13.56;100.00;99487.59;5112331;28;20194;-69
2023/10/29 06:18:37;;;;;;;1.10;1.10;;;;;;;13.62;100.00;99492.50;5111860;28;20195;-69
2023/10/29 06:21:04;;;;;;;0.83;0.83;;;;;;;13.71;100.00;99500.75;5112132;28;20251;-70
2023/10/29 06:23:32;;;;;;;1.17;1.17;;;;;;;13.79;100.00;99498.69;5111877;28;20200;-69
2023/10/29 06:25:59;;;;;;;4.37;1.13;;;;;;;13.86;100.00;99505.28;5112062;28;20271;-69
2023/10/29 06:28:26;;;;;;;1.23;1.23;;;;;;;13.87;100.00;99512.09;5111839;28;20255;-69
2023/10/29 06:30:53;;;;;;;0.83;0.83;;;;;;;13.95;100.00;99521.19;5112014;28;20198;-69
2023/10/29 06:33:19;;;;;;;0.83;0.83;;;;;;;14.03;100.00;99526.00;5111714;28;20622;-69
2023/10/29 06:35:46;;;;;;;0.50;0.50;;;;;;;14.09;100.00;99528.31;5112140;28;20271;-69
2023/10/29 06:38:15;;;;;;;1.13;1.13;;;;;;;14.11;100.00;99522.22;5111816;28;20195;-70
2023/10/29 06:40:43;;;;;;;0.70;0.70;;;;;;;14.19;100.00;99534.75;5111629;28;20207;-69
2023/10/29 06:43:09;;;;;;;1.00;1.00;;;;;;;14.24;100.00;99530.28;5111929;28;20194;-69
2023/10/29 06:45:37;;;;;;;0.67;0.67;;;;;;;14.31;100.00;99528.28;5111550;28;20197;-69
2023/10/29 06:48:04;;;;;;;0.73;0.73;;;;;;;14.40;100.00;99533.06;5111924;28;20236;-70
2023/10/29 06:50:31;;;;;;;0.80;0.80;;;;;;;14.51;100.00;99520.50;5111514;28;20202;-69
2023/10/29 06:52:58;;;;;;;0.67;0.67;;;;;;;14.60;100.00;99525.28;5111709;28;20202;-69
2023/10/29 06:55:25;;;;;;;1.67;1.57;;;;;;;14.72;100.00;99524.72;5111670;28;20198;-69
2023/10/29 06:57:53;;;;;;;0.80;0.80;;;;;;;14.89;100.00;99531.72;5111195;28;20285;-69
2023/10/29 07:00:20;;;;;;;0.83;0.83;;;;;;;14.98;100.00;99534.72;5111169;28;20198;-70
2023/10/29 07:02:47;;;;;;;0.60;0.60;;;;;;;15.19;100.00;99538.03;5111634;28;20199;-70
2023/10/29 07:05:14;;;;;;;0.87;0.87;;;;;;;15.31;99.71;99529.72;5111732;28;20725;-69
2023/10/29 07:07:40;;;;;;;0.80;0.80;;;;;;;15.49;98.38;99528.88;5111261;28;20253;-69
2023/10/29 07:10:08;;;;;;;0.80;0.80;;;;;;;15.60;97.78;99528.34;5111519;28;20225;-70
2023/10/29 07:12:36;;;;;;;0.70;0.70;;;;;;;15.75;96.62;99525.88;5111334;28;20203;-69
2023/10/29 07:15:06;;;;;;;0.70;0.70;;;;;;;15.88;95.14;99527.84;5111417;28;20198;-70
2023/10/29 07:17:33;;;;;;;1.13;1.00;;;;;;;15.93;94.56;99518.91;5111488;28;20194;-69
2023/10/29 07:19:59;;;;;;;0.93;0.93;;;;;;;16.18;93.64;99528.88;5111353;28;20198;-69
2023/10/29 07:22:26;;;;;;;0.90;0.90;;;;;;;16.39;92.17;99520.00;5109190;28;20194;-69
2023/10/29 07:24:53;;;;;;;0.90;0.90;;;;;;;16.55;92.10;99528.69;5110221;28;20218;-70
2023/10/29 07:27:19;;;;;;;1.20;1.20;;;;;;;16.76;90.68;99537.09;5110668;28;20704;-70
2023/10/29 07:29:46;;;;;;;0.80;0.80;;;;;;;16.95;89.74;99532.59;5110894;28;20190;-69
2023/10/29 07:32:14;;;;;;;1.23;1.23;;;;;;;17.22;89.10;99532.84;5111448;28;20243;-70
2023/10/29 07:34:41;;;;;;;0.70;0.70;;;;;;;17.43;87.90;99535.97;5111269;28;20251;-69
2023/10/29 07:37:09;;;;;;;0.70;0.70;;;;;;;17.69;85.76;99531.03;5111356;28;20200;-71
2023/10/29 07:39:36;;;;;;;1.00;1.00;;;;;;;17.96;83.98;99540.75;5111280;28;20705;-69
2023/10/29 07:42:03;;;;;;;1.20;1.20;;;;;;;18.18;81.54;99546.34;5111187;28;20262;-70
2023/10/29 07:44:30;;;;;;;1.10;1.10;;;;;;;18.34;80.93;99549.72;5111097;28;20200;-70
2023/10/29 07:46:58;;;;;;;1.03;1.03;;;;;;;18.59;79.38;99552.53;5111063;28;20285;-69
2023/10/29 07:49:26;;;;;;;1.20;1.10;;;;;;;18.84;80.60;99544.06;5110977;28;20202;-69
2023/10/29 07:51:53;;;;;;;0.87;0.87;;;;;;;18.97;80.79;99549.34;5110997;28;20205;-70
2023/10/29 07:54:19;;;;;;;1.00;1.00;;;;;;;19.11;80.18;99557.13;5111287;28;20635;-70
2023/10/29 07:56:46;;;;;;;1.93;1.90;;;;;;;19.30;79.10;99555.03;5110916;28;20248;-69
2023/10/29 07:59:13;;;;;;;0.60;0.60;;;;;;;19.47;77.88;99560.03;5110977;28;20197;-70
2023/10/29 08:01:39;;;;;;;1.10;1.03;;;;;;;19.60;77.29;99549.69;5110977;28;20204;-70
2023/10/29 08:04:07;;;;;;;0.50;0.50;;;;;;;19.84;76.55;99561.91;5113875;28;20194;-70
2023/10/29 08:06:35;;;;;;;1.00;0.80;;;;;;;20.07;73.12;99556.97;5114776;28;20209;-70
2023/10/29 08:09:02;;;;;;;0.60;0.60;;;;;;;20.30;71.67;99556.28;5114346;28;20194;-70
2023/10/29 08:11:29;;;;;;;1.27;0.70;;;;;;;20.45;70.22;99560.50;5114604;28;20197;-70
2023/10/29 08:13:56;;;;;;;1.37;1.27;;;;;;;20.58;70.29;99566.50;5114719;27;20198;-68
2023/10/29 08:16:23;;;;;;;0.70;0.57;;;;;;;20.75;69.26;99562.72;5114829;28;20195;-70
2023/10/29 08:18:50;;;;;;;0.60;0.60;;;;;;;20.89;69.04;99555.63;5114412;28;20201;-70
2023/10/29 08:21:18;;;;;;;0.80;0.80;;;;;;;21.08;69.88;99563.00;5114469;28;20199;-70
2023/10/29 08:23:46;;;;;;;1.13;1.03;;;;;;;21.23;68.36;99569.75;5114363;28;20194;-70
2023/10/29 08:26:12;;;;;;;0.50;0.50;;;;;;;21.37;66.83;99568.78;5114442;28;20658;-70
2023/10/29 08:28:39;;;;;;;1.00;0.70;;;;;;;21.51;66.90;99567.78;5114366;28;20214;-70
2023/10/29 08:31:08;;;;;;;0.70;0.70;;;;;;;21.60;67.25;99573.16;5114124;28;20666;-70
2023/10/29 08:33:34;;;;;;;0.60;0.60;;;;;;;21.72;65.55;99576.66;5114372;28;20222;-70
2023/10/29 08:36:01;;;;;;;0.60;0.60;;;;;;;21.84;66.09;99581.81;5114114;28;20190;-70
2023/10/29 08:38:28;;;;;;;0.67;0.67;;;;;;;21.99;64.84;99585.13;5114182;28;20203;-70
2023/10/29 08:40:56;;;;;;;1.60;0.53;;;;;;;22.06;63.55;99585.50;5113733;28;20667;-70
2023/10/29 08:43:23;;;;;;;0.83;0.83;;;;;;;22.14;64.23;99580.50;5113888;28;20198;-70
2023/10/29 08:45:49;;;;;;;0.90;0.87;;;;;;;22.25;65.50;99580.56;5114045;28;20195;-70
2023/10/29 08:48:16;;;;;;;2.00;0.53;;;;;;;22.39;64.76;99577.75;5113725;27;20275;-70
2023/10/29 08:50:43;;;;;;;0.57;0.57;;;;;;;22.44;61.92;99586.06;5113915;28;20655;-70
2023/10/29 08:53:10;;;;;;;2.03;0.60;;;;;;;22.39;62.02;99582.97;5113964;28;20202;-70
2023/10/29 08:55:36;;;;;;;0.80;0.80;;;;;;;22.26;63.07;99577.00;5113792;28;20198;-70
2023/10/29 08:58:04;;;;;;;0.70;0.60;;;;;;;22.35;61.35;99576.31;5111159;28;20243;-70
2023/10/29 09:00:32;;;;;;;0.60;0.60;;;;;;;22.49;63.52;99578.69;5113887;28;20735;-70
2023/10/29 09:02:58;;;;;;;0.77;0.50;;;;;;;22.60;62.33;99575.25;5113760;28;20670;-70
2023/10/29 09:05:25;;;;;;;0.40;0.40;;;;;;;22.67;60.98;99584.31;5113371;27;20276;-70
2023/10/29 09:07:52;;;;;;;0.93;0.50;;;;;;;22.79;62.21;99586.00;5113642;28;20275;-70
2023/10/29 09:10:19;;;;;;;1.37;1.27;;;;;;;22.90;59.79;99584.22;5113440;28;20218;-70
2023/10/29 09:12:46;;;;;;;1.70;0.80;;;;;;;23.07;60.35;99575.03;5113539;28;20213;-71
2023/10/29 09:15:15;;;;;;;0.77;0.77;;;;;;;23.26;60.00;99579.66;5113142;28;20202;-70
2023/10/29 09:17:41;;;;;;;2.70;0.80;;;;;;;23.31;59.40;99575.72;5109703;28;20191;-71
2023/10/29 09:20:08;;;;;;;0.47;0.47;;;;;;;23.55;58.86;99569.50;5113219;28;20697;-70
2023/10/29 09:22:36;;;;;;;0.70;0.70;;;;;;;23.60;60.35;99578.66;5113571;28;21635;-71
2023/10/29 09:25:02;;;;;;;0.50;0.50;;;;;;;23.69;57.82;99575.28;5113242;28;20198;-70
2023/10/29 09:27:29;;;;;;;0.70;0.70;;;;;;;23.77;59.68;99572.88;5113097;28;20681;-70
2023/10/29 09:29:56;;;;;;;0.60;0.60;;;;;;;23.88;56.93;99575.44;5113257;28;20242;-70
2023/10/29 09:32:24;;;;;;;1.50;0.70;;;;;;;23.95;55.80;99573.97;5112887;28;20199;-70
2023/10/29 09:34:51;;;;;;;0.57;0.57;;;;;;;23.91;57.09;99577.81;5113172;27;20220;-70
2023/10/29 09:37:18;;;;;;;0.80;0.80;;;;;;;23.87;56.00;99571.19;5112959;28;20248;-68
2023/10/29 09:39:45;;;;;;;0.40;0.40;;;;;;;23.88;56.58;99559.72;5113399;28;20743;-68
2023/10/29 09:42:14;;;;;;;2.53;0.60;;;;;;;23.95;55.40;99563.50;5112688;28;20267;-68
2023/10/29 09:44:42;;;;;;;0.87;0.60;;;;;;;24.03;57.17;99561.09;5112972;28;20629;-70
2023/10/29 09:47:14;;;;;;;0.63;0.63;;;;;;;24.13;55.25;99560.34;5112741;28;20310;-70
2023/10/29 09:49:42;;;;;;;0.50;0.50;;;;;;;24.08;55.35;99552.00;5112908;28;20277;-70
2023/10/29 09:52:10;;;;;;;0.73;0.50;;;;;;;24.08;54.06;99552.84;5112949;28;20194;-70
2023/10/29 09:54:38;;;;;;;0.73;0.40;;;;;;;24.10;54.36;99555.34;5112664;28;20195;-70
2023/10/29 09:57:06;;;;;;;0.60;0.60;;;;;;;24.23;55.49;99556.00;5112603;28;20194;-70
2023/10/29 09:59:32;;;;;;;0.40;0.40;;;;;;;24.36;54.56;99556.66;5112300;27;20628;-70
2023/10/29 10:01:59;;;;;;;0.60;0.60;;;;;;;24.41;56.59;99549.22;5112756;28;20589;-71
2023/10/29 10:04:26;;;;;;;0.40;0.40;;;;;;;24.52;53.24;99541.28;5112255;28;20248;-70
2023/10/29 10:06:57;;;;;;;1.93;0.57;;;;;;;24.49;53.77;99525.81;5112456;28;20259;-71
2023/10/29 10:09:25;;;;;;;0.50;0.50;;;;;;;24.68;53.75;99546.03;5112169;28;20690;-70
2023/10/29 10:12:04;;;;;;;0.37;0.37;;;;;;;24.81;53.50;99555.34;5112391;28;20194;-71
2023/10/29 10:14:31;;;;;;;0.50;0.50;;;;;;;24.83;51.89;99542.13;5112529;28;20285;-71
2023/10/29 10:17:10;;;;;;;0.57;0.57;;;;;;;24.58;51.24;99543.38;5112439;28;20205;-69
2023/10/29 10:19:37;;;;;;;0.43;0.37;;;;;;;24.34;51.36;99542.81;5112166;28;20639;-69
2023/10/29 10:22:06;;;;;;;0.60;0.60;;;;;;;24.46;53.22;99547.00;5112097;28;20248;-70
2023/10/29 10:24:37;;;;;;;0.60;0.60;;;;;;;24.62;52.65;99539.50;5111900;28;20198;-70
2023/10/29 10:27:05;;;;;;;2.55;0.55;;;;;;;24.72;52.54;99536.94;5111370;28;20198;-70
2023/10/29 10:29:32;;;;;;;0.70;0.60;;;;;;;24.70;52.03;99526.59;5111995;28;20201;-70
2023/10/29 10:32:03;;;;;;;0.30;0.30;;;;;;;24.87;52.58;99535.66;5111984;28;20198;-70
2023/10/29 10:34:31;;;;;;;0.57;0.57;;;;;;;24.96;52.26;99534.84;5112177;28;20206;-70
2023/10/29 10:37:02;;;;;;;0.40;0.40;;;;;;;25.03;51.44;99535.97;5111801;28;20229;-70
2023/10/29 10:39:32;;;;;;;0.83;0.50;;;;;;;25.05;50.91;99529.63;5111101;28;20210;-70
2023/10/29 10:42:00;;;;;;;2.43;0.60;;;;;;;25.16;48.95;99520.81;5111748;28;20294;-70
2023/10/29 10:44:29;;;;;;;0.40;0.40;;;;;;;25.20;50.22;99521.38;5111729;28;20194;-71
2023/10/29 10:46:58;;;;;;;1.30;0.67;;;;;;;25.04;49.41;99522.69;5111627;28;20194;-70
2023/10/29 10:49:25;;;;;;;0.40;0.40;;;;;;;25.12;51.65;99514.16;5111558;28;20221;-71
2023/10/29 10:51:55;;;;;;;0.40;0.40;;;;;;;25.04;49.90;99525.31;5111756;28;20195;-71
2023/10/29 10:54:23;;;;;;;1.70;0.47;;;;;;;25.21;50.14;99518.59;5111815;28;20194;-71
2023/10/29 10:56:53;;;;;;;0.50;0.50;;;;;;;25.18;48.67;99524.13;5111737;28;20590;-69
2023/10/29 10:59:21;;;;;;;1.70;0.50;;;;;;;25.20;49.82;99516.97;5111621;28;20670;-70
2023/10/29 11:01:49;;;;;;;2.10;0.30;;;;;;;25.13;48.85;99502.72;5111404;28;20251;-70
2023/10/29 11:04:16;;;;;;;0.83;0.83;;;;;;;25.19;48.58;99502.16;5111571;28;20194;-70
2023/10/29 11:06:43;;;;;;;0.50;0.50;;;;;;;25.20;48.87;99501.22;5111399;28;20187;-70
2023/10/29 11:09:13;;;;;;;0.40;0.40;;;;;;;25.25;48.67;99498.16;5111337;28;20693;-70
2023/10/29 11:11:45;;;;;;;0.40;0.40;;;;;;;25.32;47.71;99499.28;5111412;28;20624;-70
2023/10/29 11:14:14;;;;;;;0.60;0.50;;;;;;;25.41;49.00;99494.03;5111599;28;20220;-71
2023/10/29 11:16:49;;;;;;;0.40;0.40;;;;;;;25.47;47.34;99497.91;5111066;28;20285;-70
2023/10/29 11:19:42;;;;;;;0.60;0.53;;;;;;;25.38;47.49;99489.06;5111592;28;20194;-70
2023/10/29 11:22:20;;;;;;;0.87;0.77;;;;;;;25.33;47.44;99493.06;5111521;28;20669;-70
2023/10/29 11:25:38;;;;;;;0.63;0.63;;;;;;;25.26;47.77;99494.59;5111435;28;20202;-70
2023/10/29 11:28:05;;;;;;;0.80;0.80;;;;;;;25.28;49.07;99482.97;5111389;28;20221;-70
2023/10/29 11:30:33;;;;;;;0.60;0.50;;;;;;;25.30;49.11;99485.47;5111311;28;20202;-71
2023/10/29 11:33:17;;;;;;;0.50;0.50;;;;;;;25.40;49.13;99481.03;5111085;28;20194;-70